createdAt,value
2016-10-03T03:01:23.618Z,1018.47
2016-10-03T03:01:49.222Z,1018.47
2016-10-03T03:02:14.780Z,1018.55
2016-10-03T03:02:40.357Z,1018.52
2016-10-03T03:03:05.961Z,1018.52
2016-10-03T03:03:31.481Z,1018.55
2016-10-03T03:03:57.160Z,1018.53
2016-10-03T03:04:22.709Z,1018.54
2016-10-03T03:04:48.295Z,1018.61
2016-10-03T03:05:13.844Z,1018.64
2016-10-03T03:05:39.383Z,1018.65
2016-10-03T03:06:05.020Z,1018.6
2016-10-03T03:06:30.617Z,1018.61
2016-10-03T03:06:56.191Z,1018.64
2016-10-03T03:07:21.760Z,1018.63
2016-10-03T03:07:47.448Z,1018.66
2016-10-03T03:08:13.015Z,1018.69
2016-10-03T03:08:38.621Z,1018.67
2016-10-03T03:09:04.194Z,1018.66
2016-10-03T03:10:17.604Z,1018.69
2016-10-03T03:10:43.162Z,1018.69
2016-10-03T03:12:44.677Z,1018.7
2016-10-03T03:13:11.870Z,1018.71
2016-10-03T03:13:37.419Z,1018.71
2016-10-03T03:14:02.970Z,1018.71
2016-10-03T03:14:28.662Z,1018.67
2016-10-03T03:14:54.177Z,1018.7
2016-10-03T03:15:19.719Z,1018.73
2016-10-03T03:15:45.289Z,1018.72
2016-10-03T03:16:10.848Z,1018.77
2016-10-03T03:16:36.391Z,1018.71
2016-10-03T03:17:01.938Z,1018.75
2016-10-03T03:17:27.543Z,1018.78
2016-10-03T03:17:53.098Z,1018.82
2016-10-03T03:18:18.635Z,1018.8
2016-10-03T03:18:44.193Z,1018.81
2016-10-03T03:19:09.794Z,1018.84
2016-10-03T03:19:37.188Z,1018.8
2016-10-03T03:20:02.768Z,1018.85
2016-10-03T03:20:28.318Z,1018.87
2016-10-03T03:20:53.903Z,1018.85
2016-10-03T03:21:19.446Z,1018.88
2016-10-03T03:21:44.999Z,1018.88
2016-10-03T03:22:10.554Z,1018.89
2016-10-03T03:23:08.919Z,1018.92
2016-10-03T03:23:34.554Z,1018.91
2016-10-03T03:24:00.096Z,1018.94
2016-10-03T03:25:13.583Z,1018.97
2016-10-03T03:27:28.996Z,1019.01
2016-10-03T03:27:54.578Z,1018.99
2016-10-03T03:28:20.127Z,1019
2016-10-03T03:28:45.720Z,1019
2016-10-03T03:29:11.272Z,1018.97
2016-10-03T03:29:36.849Z,1019.03
2016-10-03T03:30:02.432Z,1018.99
2016-10-03T03:30:27.998Z,1019.02
2016-10-03T03:30:53.542Z,1019.02
2016-10-03T03:31:19.115Z,1019.06
2016-10-03T03:31:44.675Z,1019.04
2016-10-03T03:32:10.320Z,1019.03
2016-10-03T03:32:35.883Z,1019.07
2016-10-03T03:33:01.435Z,1019.08
2016-10-03T03:33:27.048Z,1019.11
2016-10-03T03:33:52.718Z,1019.09
2016-10-03T03:34:18.295Z,1019.12
2016-10-03T03:34:43.806Z,1019.13
2016-10-03T03:35:09.447Z,1019.17
2016-10-03T03:35:35.026Z,1019.12
2016-10-03T03:36:00.549Z,1019.1
2016-10-03T03:37:13.988Z,1019.15
2016-10-03T03:37:39.627Z,1019.15
2016-10-03T03:38:05.158Z,1019.16
2016-10-03T03:38:30.710Z,1019.16
2016-10-03T03:38:56.264Z,1019.18
2016-10-03T03:39:21.853Z,1019.2
2016-10-03T03:39:47.500Z,1019.2
2016-10-03T03:40:13.087Z,1019.24
2016-10-03T03:40:38.707Z,1019.24
2016-10-03T03:41:04.266Z,1019.25
2016-10-03T03:41:29.813Z,1019.22
2016-10-03T03:41:55.363Z,1019.24
2016-10-03T03:42:20.917Z,1019.27
2016-10-03T03:42:46.468Z,1019.29
2016-10-03T03:43:12.023Z,1019.28
2016-10-03T03:43:37.688Z,1019.3
2016-10-03T03:44:03.256Z,1019.31
2016-10-03T03:44:28.822Z,1019.36
2016-10-03T03:44:54.427Z,1019.31
2016-10-03T03:45:20.038Z,1019.36
2016-10-03T03:45:46.317Z,1019.36
2016-10-03T03:46:11.877Z,1019.41
2016-10-03T03:46:37.483Z,1019.38
2016-10-03T03:47:03.047Z,1019.37
2016-10-03T03:47:28.622Z,1019.41
2016-10-03T03:47:54.174Z,1019.4
2016-10-03T03:48:19.726Z,1019.41
2016-10-03T03:48:45.276Z,1019.4
2016-10-03T03:49:10.831Z,1019.42
2016-10-03T03:49:36.388Z,1019.45
2016-10-03T03:50:01.946Z,1019.46
2016-10-03T03:50:27.512Z,1019.47
2016-10-03T03:50:53.087Z,1019.5
2016-10-03T03:51:18.650Z,1019.49
2016-10-03T03:51:44.169Z,1019.54
2016-10-03T03:52:09.720Z,1019.52
2016-10-03T03:52:35.273Z,1019.57
2016-10-03T03:53:00.845Z,1019.57
2016-10-03T03:53:26.391Z,1019.61
2016-10-03T03:53:53.745Z,1019.58
2016-10-03T03:54:19.328Z,1019.61
2016-10-03T03:54:44.880Z,1019.57
2016-10-03T03:55:11.273Z,1019.63
2016-10-03T03:55:36.865Z,1019.62
2016-10-03T03:56:02.408Z,1019.63
2016-10-03T03:56:27.961Z,1019.65
2016-10-03T03:56:53.511Z,1019.61
2016-10-03T03:57:19.070Z,1019.65
2016-10-03T03:57:44.637Z,1019.67
2016-10-03T03:58:10.158Z,1019.69
2016-10-03T03:58:35.731Z,1019.66
2016-10-03T03:59:01.335Z,1019.66
2016-10-03T03:59:26.886Z,1019.69
2016-10-03T03:59:52.457Z,1019.68
2016-10-03T04:00:18.026Z,1019.7
2016-10-03T04:00:43.577Z,1019.68
2016-10-03T04:01:09.111Z,1019.68
2016-10-03T04:01:34.683Z,1019.68
2016-10-03T04:02:00.231Z,1019.72
2016-10-03T04:02:25.801Z,1019.72
2016-10-03T04:02:51.474Z,1019.68
2016-10-03T04:03:17.123Z,1019.67
2016-10-03T04:03:42.684Z,1019.72
2016-10-03T04:04:08.227Z,1019.71
2016-10-03T04:04:34.094Z,1019.71
2016-10-03T04:04:59.721Z,1019.73
2016-10-03T04:05:25.288Z,1019.72
2016-10-03T04:05:50.852Z,1019.72
2016-10-03T04:07:09.429Z,1019.72
2016-10-03T04:07:35.069Z,1019.74
2016-10-03T04:08:00.627Z,1019.75
2016-10-03T04:08:26.195Z,1019.72
2016-10-03T04:08:51.764Z,1019.74
2016-10-03T04:09:17.400Z,1019.75
2016-10-03T04:09:42.937Z,1019.74
2016-10-03T04:10:08.635Z,1019.76
2016-10-03T04:10:34.173Z,1019.8
2016-10-03T04:10:59.725Z,1019.77
2016-10-03T04:11:25.359Z,1019.74
2016-10-03T04:11:50.944Z,1019.75
2016-10-03T04:12:16.486Z,1019.79
2016-10-03T04:12:42.047Z,1019.79
2016-10-03T04:13:07.625Z,1019.77
2016-10-03T04:13:33.221Z,1019.77
2016-10-03T04:13:58.790Z,1019.81
2016-10-03T04:14:24.344Z,1019.81
2016-10-03T04:14:49.906Z,1019.79
2016-10-03T04:15:15.456Z,1019.81
2016-10-03T04:15:41.077Z,1019.8
2016-10-03T04:16:07.475Z,1019.83
2016-10-03T04:16:33.072Z,1019.81
2016-10-03T04:16:58.632Z,1019.78
2016-10-03T04:17:24.187Z,1019.79
2016-10-03T04:17:49.753Z,1019.8
2016-10-03T04:18:15.298Z,1019.84
2016-10-03T04:18:40.857Z,1019.83
2016-10-03T04:19:06.527Z,1019.83
2016-10-03T04:19:32.104Z,1019.83
2016-10-03T04:19:57.671Z,1019.87
2016-10-03T04:20:23.317Z,1019.89
2016-10-03T04:20:48.881Z,1019.92
2016-10-03T04:21:14.442Z,1019.93
2016-10-03T04:21:40.098Z,1019.94
2016-10-03T04:22:05.678Z,1019.97
2016-10-03T04:22:31.205Z,1019.98
2016-10-03T04:22:56.769Z,1020
2016-10-03T04:24:00.108Z,1020.01
2016-10-03T04:24:25.656Z,1020.04
2016-10-03T04:24:51.218Z,1020.05
2016-10-03T04:25:16.789Z,1020.05
2016-10-03T04:25:42.452Z,1020.08
2016-10-03T04:26:08.010Z,1020.1
2016-10-03T04:26:33.589Z,1020.11
2016-10-03T04:26:59.137Z,1020.07
2016-10-03T04:27:24.706Z,1020.07
2016-10-03T04:27:50.286Z,1020.12
2016-10-03T04:28:15.915Z,1020.14
2016-10-03T04:28:41.496Z,1020.12
2016-10-03T04:29:07.098Z,1020.15
2016-10-03T04:29:32.690Z,1020.17
2016-10-03T04:29:58.248Z,1020.17
2016-10-03T04:30:23.811Z,1020.16
2016-10-03T04:30:49.350Z,1020.23
2016-10-03T04:31:14.918Z,1020.21
2016-10-03T04:31:40.484Z,1020.21
2016-10-03T04:32:06.060Z,1020.2
2016-10-03T04:32:31.619Z,1020.24
2016-10-03T04:32:57.173Z,1020.25
2016-10-03T04:33:22.729Z,1020.25
2016-10-03T04:33:48.353Z,1020.24
2016-10-03T04:34:13.908Z,1020.23
2016-10-03T04:34:39.511Z,1020.25
2016-10-03T04:35:05.069Z,1020.25
2016-10-03T04:35:30.621Z,1020.25
2016-10-03T04:35:56.208Z,1020.21
2016-10-03T04:36:21.791Z,1020.25
2016-10-03T04:36:47.333Z,1020.3
2016-10-03T04:37:12.918Z,1020.25
2016-10-03T04:37:38.478Z,1020.3
2016-10-03T04:38:04.022Z,1020.29
2016-10-03T04:38:29.598Z,1020.28
2016-10-03T04:38:55.149Z,1020.32
2016-10-03T04:39:20.693Z,1020.29
2016-10-03T04:39:46.254Z,1020.33
2016-10-03T04:40:11.933Z,1020.35
2016-10-03T04:40:37.509Z,1020.34
2016-10-03T04:41:03.065Z,1020.33
2016-10-03T04:41:28.585Z,1020.37
2016-10-03T04:41:54.116Z,1020.39
2016-10-03T04:42:19.663Z,1020.39
2016-10-03T04:42:45.326Z,1020.41
2016-10-03T04:43:10.933Z,1020.4
2016-10-03T04:43:36.476Z,1020.42
2016-10-03T04:44:02.139Z,1020.45
2016-10-03T04:44:27.720Z,1020.41
2016-10-03T04:44:53.274Z,1020.48
2016-10-03T04:45:18.826Z,1020.44
2016-10-03T04:45:44.517Z,1020.44
2016-10-03T04:46:10.025Z,1020.47
2016-10-03T04:46:35.574Z,1020.46
2016-10-03T04:47:01.117Z,1020.44
2016-10-03T04:47:26.677Z,1020.41
2016-10-03T04:47:52.209Z,1020.45
2016-10-03T04:48:17.781Z,1020.45
2016-10-03T04:48:43.346Z,1020.44
2016-10-03T04:49:08.921Z,1020.42
2016-10-03T04:49:34.480Z,1020.44
2016-10-03T04:50:00.081Z,1020.43
2016-10-03T04:50:25.700Z,1020.44
2016-10-03T04:50:51.253Z,1020.43
2016-10-03T04:51:16.819Z,1020.44
2016-10-03T04:51:42.463Z,1020.5
2016-10-03T04:52:08.006Z,1020.46
2016-10-03T04:52:33.647Z,1020.48
2016-10-03T04:52:59.212Z,1020.52
2016-10-03T04:53:24.875Z,1020.48
2016-10-03T04:53:50.442Z,1020.5
2016-10-03T04:54:16.005Z,1020.51
2016-10-03T04:54:41.680Z,1020.49
2016-10-03T04:55:07.240Z,1020.51
2016-10-03T04:55:32.819Z,1020.54
2016-10-03T04:55:58.466Z,1020.51
2016-10-03T04:56:24.051Z,1020.55
2016-10-03T04:56:49.628Z,1020.51
2016-10-03T04:57:15.287Z,1020.51
2016-10-03T04:57:40.840Z,1020.51
2016-10-03T04:58:06.406Z,1020.52
2016-10-03T04:58:31.993Z,1020.54
2016-10-03T04:58:57.691Z,1020.54
2016-10-03T04:59:23.236Z,1020.54
2016-10-03T04:59:48.792Z,1020.53
2016-10-03T05:00:14.311Z,1020.55
2016-10-03T05:00:39.876Z,1020.52
2016-10-03T05:01:05.420Z,1020.58
2016-10-03T05:01:30.972Z,1020.56
2016-10-03T05:01:56.531Z,1020.58
2016-10-03T05:02:22.160Z,1020.61
2016-10-03T05:02:47.837Z,1020.61
2016-10-03T05:03:13.402Z,1020.56
2016-10-03T05:03:39.003Z,1020.61
2016-10-03T05:04:04.673Z,1020.62
2016-10-03T05:04:30.210Z,1020.66
2016-10-03T05:04:55.773Z,1020.66
2016-10-03T05:05:21.545Z,1020.63
2016-10-03T05:05:47.010Z,1020.63
2016-10-03T05:06:12.570Z,1020.69
2016-10-03T05:06:38.281Z,1020.69
2016-10-03T05:07:03.880Z,1020.68
2016-10-03T05:07:29.437Z,1020.67
2016-10-03T05:07:55.002Z,1020.72
2016-10-03T05:09:13.795Z,1020.72
2016-10-03T05:09:40.232Z,1020.73
2016-10-03T05:10:05.811Z,1020.77
2016-10-03T05:10:31.430Z,1020.79
2016-10-03T05:10:57.032Z,1020.81
2016-10-03T05:12:15.591Z,1020.84
2016-10-03T05:12:41.162Z,1020.82
2016-10-03T05:13:06.800Z,1020.8
2016-10-03T05:13:32.366Z,1020.8
2016-10-03T05:13:57.916Z,1020.85
2016-10-03T05:14:23.469Z,1020.87
2016-10-03T05:14:49.026Z,1020.85
2016-10-03T05:15:14.711Z,1020.86
2016-10-03T05:15:40.276Z,1020.89
2016-10-03T05:16:05.816Z,1020.89
2016-10-03T05:16:31.418Z,1020.88
2016-10-03T05:16:57.104Z,1020.9
2016-10-03T05:17:22.660Z,1020.92
2016-10-03T05:17:48.218Z,1020.9
2016-10-03T05:18:13.771Z,1020.92
2016-10-03T05:18:39.385Z,1020.95
2016-10-03T05:19:04.934Z,1020.93
2016-10-03T05:19:30.568Z,1020.94
2016-10-03T05:19:56.115Z,1020.96
2016-10-03T05:20:21.651Z,1020.95
2016-10-03T05:20:47.226Z,1020.95
2016-10-03T05:21:12.773Z,1020.99
2016-10-03T05:21:38.336Z,1021.02
2016-10-03T05:22:03.890Z,1021.01
2016-10-03T05:22:55.052Z,1021.01
2016-10-03T05:23:20.636Z,1021.02
2016-10-03T05:23:46.190Z,1021.02
2016-10-03T05:24:11.780Z,1021.04
2016-10-03T05:24:37.321Z,1021.06
2016-10-03T05:25:02.875Z,1021.02
2016-10-03T05:25:28.435Z,1021.04
2016-10-03T05:25:53.974Z,1021.04
2016-10-03T05:26:19.599Z,1021.02
2016-10-03T05:26:45.185Z,1021.02
2016-10-03T05:27:10.749Z,1021.03
2016-10-03T05:27:36.353Z,1021.06
2016-10-03T05:28:01.905Z,1021.04
2016-10-03T05:28:27.456Z,1021.13
2016-10-03T05:28:53.012Z,1021.09
2016-10-03T05:29:18.568Z,1021.07
2016-10-03T05:29:44.191Z,1021.04
2016-10-03T05:30:09.788Z,1021.08
2016-10-03T05:30:35.373Z,1021.1
2016-10-03T05:31:00.933Z,1021.08
2016-10-03T05:31:26.474Z,1021.1
2016-10-03T05:31:52.053Z,1021.05
2016-10-03T05:32:17.604Z,1021.05
2016-10-03T05:32:43.156Z,1021.06
2016-10-03T05:33:08.737Z,1021.05
2016-10-03T05:33:34.313Z,1021.03
2016-10-03T05:33:59.883Z,1021.03
2016-10-03T05:35:13.328Z,1021.01
2016-10-03T05:35:38.862Z,1021.04
2016-10-03T05:36:04.532Z,1021.04
2016-10-03T05:36:30.103Z,1021.03
2016-10-03T05:36:55.648Z,1021.09
2016-10-03T05:37:21.224Z,1021.05
2016-10-03T05:37:46.774Z,1021.08
2016-10-03T05:38:12.337Z,1021.09
2016-10-03T05:38:37.929Z,1021.06
2016-10-03T05:39:03.498Z,1021.04
2016-10-03T05:39:29.070Z,1021.06
2016-10-03T05:39:54.625Z,1021.07
2016-10-03T05:40:20.191Z,1021.02
2016-10-03T05:40:45.761Z,1021.07
2016-10-03T05:41:11.332Z,1021.09
2016-10-03T05:41:36.894Z,1021.1
2016-10-03T05:42:02.485Z,1021.15
2016-10-03T05:42:28.157Z,1021.13
2016-10-03T05:42:53.704Z,1021.13
2016-10-03T05:43:19.292Z,1021.13
2016-10-03T05:43:44.890Z,1021.18
2016-10-03T05:44:10.466Z,1021.22
2016-10-03T05:44:36.034Z,1021.21
2016-10-03T05:45:01.596Z,1021.24
2016-10-03T05:45:27.162Z,1021.27
2016-10-03T05:45:52.713Z,1021.29
2016-10-03T05:46:18.268Z,1021.28
2016-10-03T05:46:43.815Z,1021.29
2016-10-03T05:47:09.458Z,1021.28
2016-10-03T05:47:35.055Z,1021.27
2016-10-03T05:48:00.604Z,1021.31
2016-10-03T05:48:26.143Z,1021.33
2016-10-03T05:48:51.786Z,1021.34
2016-10-03T05:49:17.353Z,1021.32
2016-10-03T05:49:43.047Z,1021.33
2016-10-03T05:50:08.679Z,1021.37
2016-10-03T05:50:34.230Z,1021.38
2016-10-03T05:50:59.804Z,1021.42
2016-10-03T05:51:25.366Z,1021.39
2016-10-03T05:51:50.983Z,1021.42
2016-10-03T05:52:16.519Z,1021.4
2016-10-03T05:52:42.074Z,1021.4
2016-10-03T05:53:07.623Z,1021.41
2016-10-03T05:53:33.433Z,1021.41
2016-10-03T05:53:59.153Z,1021.4
2016-10-03T05:54:24.730Z,1021.39
2016-10-03T05:54:50.284Z,1021.38
2016-10-03T05:55:15.858Z,1021.37
2016-10-03T05:55:41.486Z,1021.41
2016-10-03T05:56:07.126Z,1021.42
2016-10-03T05:56:32.677Z,1021.41
2016-10-03T05:56:58.261Z,1021.4
2016-10-03T05:57:23.803Z,1021.45
2016-10-03T05:57:49.369Z,1021.43
2016-10-03T05:58:14.952Z,1021.45
2016-10-03T05:58:40.509Z,1021.47
2016-10-03T05:59:06.069Z,1021.45
2016-10-03T05:59:31.713Z,1021.47
2016-10-03T05:59:57.268Z,1021.48
2016-10-03T06:01:00.721Z,1021.52
2016-10-03T06:01:26.269Z,1021.52
2016-10-03T06:01:51.877Z,1021.54
2016-10-03T06:02:17.535Z,1021.54
2016-10-03T06:02:43.077Z,1021.56
2016-10-03T06:03:08.636Z,1021.59
2016-10-03T06:03:35.528Z,1021.58
2016-10-03T06:04:01.652Z,1021.62
2016-10-03T06:04:27.900Z,1021.58
2016-10-03T06:04:53.713Z,1021.55
2016-10-03T06:05:20.381Z,1021.59
2016-10-03T06:05:45.870Z,1021.59
2016-10-03T06:06:11.841Z,1021.62
2016-10-03T06:06:38.413Z,1021.62
2016-10-03T06:07:04.373Z,1021.66
2016-10-03T06:07:29.950Z,1021.61
2016-10-03T06:07:55.581Z,1021.61
2016-10-03T06:08:21.712Z,1021.67
2016-10-03T06:08:47.925Z,1021.67
2016-10-03T06:09:14.301Z,1021.67
2016-10-03T06:09:40.196Z,1021.67
2016-10-03T06:10:05.995Z,1021.7
2016-10-03T06:10:31.563Z,1021.76
2016-10-03T06:11:54.710Z,1021.72
2016-10-03T06:12:19.506Z,1021.71
2016-10-03T06:12:45.076Z,1021.73
2016-10-03T06:13:10.983Z,1021.7
2016-10-03T06:13:36.560Z,1021.76
2016-10-03T06:14:02.134Z,1021.75
2016-10-03T06:17:02.297Z,1021.74
2016-10-03T06:17:27.849Z,1021.76
2016-10-03T06:17:53.409Z,1021.78
2016-10-03T06:18:18.985Z,1021.75
2016-10-03T06:19:32.629Z,1021.79
2016-10-03T06:20:30.715Z,1021.77
2016-10-03T06:20:56.385Z,1021.78
2016-10-03T06:21:21.928Z,1021.79
2016-10-03T06:21:47.496Z,1021.77
2016-10-03T06:22:13.059Z,1021.77
2016-10-03T06:22:38.633Z,1021.78
2016-10-03T06:23:04.233Z,1021.76
2016-10-03T06:23:29.862Z,1021.78
2016-10-03T06:24:48.612Z,1021.83
2016-10-03T06:25:14.348Z,1021.81
2016-10-03T06:25:40.144Z,1021.84
2016-10-03T06:26:05.723Z,1021.88
2016-10-03T06:26:31.287Z,1021.85
2016-10-03T06:26:56.827Z,1021.87
2016-10-03T06:27:22.381Z,1021.88
2016-10-03T06:27:47.947Z,1021.91
2016-10-03T06:28:13.486Z,1021.91
2016-10-03T06:28:39.168Z,1021.92
2016-10-03T06:29:04.703Z,1021.93
2016-10-03T06:29:30.282Z,1021.9
2016-10-03T06:29:55.977Z,1021.88
2016-10-03T06:30:21.529Z,1021.89
2016-10-03T06:30:47.237Z,1021.91
2016-10-03T06:31:12.795Z,1021.93
2016-10-03T06:31:38.367Z,1021.87
2016-10-03T06:32:04.001Z,1021.91
2016-10-03T06:32:29.636Z,1021.89
2016-10-03T06:32:55.196Z,1021.9
2016-10-03T06:33:20.757Z,1021.87
2016-10-03T06:33:46.447Z,1021.91
2016-10-03T06:34:11.968Z,1021.91
2016-10-03T06:34:37.527Z,1021.87
2016-10-03T06:35:03.074Z,1021.87
2016-10-03T06:36:16.587Z,1021.9
2016-10-03T06:36:42.227Z,1021.89
2016-10-03T06:37:07.768Z,1021.92
2016-10-03T06:37:33.362Z,1021.93
2016-10-03T06:37:58.951Z,1021.94
2016-10-03T06:38:24.500Z,1021.94
2016-10-03T06:38:50.061Z,1021.92
2016-10-03T06:39:58.477Z,1021.96
2016-10-03T06:40:24.140Z,1021.96
2016-10-03T06:40:49.631Z,1021.99
2016-10-03T06:41:15.164Z,1021.99
2016-10-03T06:41:40.727Z,1022
2016-10-03T06:42:06.298Z,1022.02
2016-10-03T06:42:31.899Z,1022.02
2016-10-03T06:42:57.425Z,1021.98
2016-10-03T06:43:23.047Z,1022.03
2016-10-03T06:43:48.654Z,1021.99
2016-10-03T06:44:14.280Z,1021.97
2016-10-03T06:44:39.818Z,1022.04
2016-10-03T06:45:05.684Z,1021.98
2016-10-03T06:45:31.320Z,1021.97
2016-10-03T06:45:56.834Z,1021.97
2016-10-03T06:46:22.398Z,1021.98
2016-10-03T06:46:48.018Z,1021.99
2016-10-03T06:47:13.567Z,1021.99
2016-10-03T06:47:39.125Z,1021.99
2016-10-03T06:48:04.680Z,1022.02
2016-10-03T06:48:30.242Z,1022.02
2016-10-03T06:48:55.840Z,1022.01
2016-10-03T06:49:21.430Z,1022.01
2016-10-03T06:49:46.986Z,1022
2016-10-03T06:50:12.552Z,1022.04
2016-10-03T06:50:38.103Z,1022.04
2016-10-03T06:51:03.661Z,1022.05
2016-10-03T06:51:29.197Z,1022.05
2016-10-03T06:51:54.766Z,1022.05
2016-10-03T06:52:20.323Z,1022.1
2016-10-03T06:52:45.890Z,1022.11
2016-10-03T06:53:11.471Z,1022.11
2016-10-03T06:54:19.772Z,1022.18
2016-10-03T06:54:45.406Z,1022.19
2016-10-03T06:55:11.297Z,1022.2
2016-10-03T06:55:36.865Z,1022.21
2016-10-03T06:56:02.440Z,1022.21
2016-10-03T06:56:27.982Z,1022.18
2016-10-03T06:56:53.544Z,1022.23
2016-10-03T06:57:19.082Z,1022.2
2016-10-03T06:57:44.657Z,1022.24
2016-10-03T06:58:10.193Z,1022.22
2016-10-03T06:58:35.768Z,1022.2
2016-10-03T06:59:01.323Z,1022.23
2016-10-03T06:59:26.923Z,1022.22
2016-10-03T06:59:52.475Z,1022.22
2016-10-03T07:00:18.043Z,1022.23
2016-10-03T07:00:43.607Z,1022.2
2016-10-03T07:01:09.158Z,1022.22
2016-10-03T07:01:35.200Z,1022.19
2016-10-03T07:02:00.737Z,1022.24
2016-10-03T07:02:26.358Z,1022.2
2016-10-03T07:02:51.914Z,1022.2
2016-10-03T07:03:17.453Z,1022.16
2016-10-03T07:03:43.051Z,1022.19
2016-10-03T07:04:08.608Z,1022.14
2016-10-03T07:04:34.199Z,1022.1
2016-10-03T07:04:59.770Z,1022.15
2016-10-03T07:05:25.324Z,1022.1
2016-10-03T07:05:50.890Z,1022.1
2016-10-03T07:06:16.560Z,1022.1
2016-10-03T07:06:42.132Z,1022.14
2016-10-03T07:07:07.760Z,1022.1
2016-10-03T07:07:33.472Z,1022.09
2016-10-03T07:07:59.048Z,1022.09
2016-10-03T07:08:24.810Z,1022.11
2016-10-03T07:08:50.449Z,1022.11
2016-10-03T07:09:16.018Z,1022.11
2016-10-03T07:09:41.713Z,1022.13
2016-10-03T07:10:07.303Z,1022.14
2016-10-03T07:10:32.992Z,1022.13
2016-10-03T07:10:58.582Z,1022.17
2016-10-03T07:11:24.122Z,1022.18
2016-10-03T07:11:49.792Z,1022.16
2016-10-03T07:12:15.362Z,1022.18
2016-10-03T07:12:41.040Z,1022.19
2016-10-03T07:13:06.787Z,1022.2
2016-10-03T07:13:32.359Z,1022.23
2016-10-03T07:13:57.917Z,1022.24
2016-10-03T07:14:23.492Z,1022.23
2016-10-03T07:14:49.046Z,1022.2
2016-10-03T07:15:14.615Z,1022.27
2016-10-03T07:15:40.170Z,1022.26
2016-10-03T07:16:05.854Z,1022.29
2016-10-03T07:16:31.453Z,1022.29
2016-10-03T07:16:57.065Z,1022.33
2016-10-03T07:17:22.807Z,1022.35
2016-10-03T07:17:48.355Z,1022.35
2016-10-03T07:18:13.901Z,1022.35
2016-10-03T07:18:39.499Z,1022.38
2016-10-03T07:19:05.209Z,1022.35
2016-10-03T07:19:30.902Z,1022.38
2016-10-03T07:19:56.471Z,1022.34
2016-10-03T07:20:22.289Z,1022.38
2016-10-03T07:20:47.920Z,1022.37
2016-10-03T07:21:13.475Z,1022.38
2016-10-03T07:21:39.027Z,1022.32
2016-10-03T07:22:04.593Z,1022.31
2016-10-03T07:22:30.204Z,1022.31
2016-10-03T07:22:55.773Z,1022.3
2016-10-03T07:23:21.370Z,1022.34
2016-10-03T07:23:47.053Z,1022.3
2016-10-03T07:24:12.709Z,1022.29
2016-10-03T07:24:38.274Z,1022.3
2016-10-03T07:25:03.887Z,1022.31
2016-10-03T07:25:30.069Z,1022.32
2016-10-03T07:25:55.658Z,1022.37
2016-10-03T07:26:21.248Z,1022.37
2016-10-03T07:26:46.806Z,1022.39
2016-10-03T07:27:12.399Z,1022.39
2016-10-03T07:28:21.162Z,1022.46
2016-10-03T07:28:46.769Z,1022.45
2016-10-03T07:29:12.420Z,1022.49
2016-10-03T07:29:38.174Z,1022.45
2016-10-03T07:30:04.410Z,1022.51
2016-10-03T07:30:29.989Z,1022.49
2016-10-03T07:30:55.676Z,1022.47
2016-10-03T07:31:21.239Z,1022.54
2016-10-03T07:31:46.794Z,1022.49
2016-10-03T07:32:12.447Z,1022.53
2016-10-03T07:32:37.993Z,1022.48
2016-10-03T07:33:03.571Z,1022.51
2016-10-03T07:33:29.159Z,1022.54
2016-10-03T07:33:54.711Z,1022.57
2016-10-03T07:34:20.280Z,1022.54
2016-10-03T07:34:45.849Z,1022.53
2016-10-03T07:35:11.403Z,1022.59
2016-10-03T07:35:37.436Z,1022.57
2016-10-03T07:36:03.679Z,1022.61
2016-10-03T07:36:30.168Z,1022.59
2016-10-03T07:36:55.726Z,1022.6
2016-10-03T07:37:21.300Z,1022.6
2016-10-03T07:37:46.842Z,1022.61
2016-10-03T07:38:12.481Z,1022.6
2016-10-03T07:38:38.045Z,1022.6
2016-10-03T07:39:03.629Z,1022.65
2016-10-03T07:39:29.292Z,1022.63
2016-10-03T07:39:54.900Z,1022.62
2016-10-03T07:41:13.535Z,1022.63
2016-10-03T07:41:39.219Z,1022.63
2016-10-03T07:42:04.771Z,1022.64
2016-10-03T07:42:30.327Z,1022.63
2016-10-03T07:42:55.986Z,1022.61
2016-10-03T07:43:21.555Z,1022.61
2016-10-03T07:43:47.271Z,1022.61
2016-10-03T07:44:13.000Z,1022.65
2016-10-03T07:44:38.723Z,1022.63
2016-10-03T07:45:04.561Z,1022.65
2016-10-03T07:45:30.123Z,1022.64
2016-10-03T07:45:55.708Z,1022.67
2016-10-03T07:46:21.272Z,1022.65
2016-10-03T07:46:46.840Z,1022.67
2016-10-03T07:47:12.400Z,1022.71
2016-10-03T07:47:38.033Z,1022.67
2016-10-03T07:48:03.736Z,1022.72
2016-10-03T07:48:29.294Z,1022.73
2016-10-03T07:48:54.862Z,1022.72
2016-10-03T07:49:20.429Z,1022.69
2016-10-03T07:49:46.007Z,1022.73
2016-10-03T07:50:11.672Z,1022.78
2016-10-03T07:50:37.255Z,1022.72
2016-10-03T07:51:02.813Z,1022.75
2016-10-03T07:51:28.379Z,1022.77
2016-10-03T07:51:54.552Z,1022.75
2016-10-03T07:52:20.211Z,1022.75
2016-10-03T07:52:45.767Z,1022.77
2016-10-03T07:53:11.405Z,1022.75
2016-10-03T07:53:37.046Z,1022.79
2016-10-03T07:54:02.592Z,1022.83
2016-10-03T07:54:28.232Z,1022.82
2016-10-03T07:54:53.821Z,1022.79
2016-10-03T07:55:19.508Z,1022.77
2016-10-03T07:55:45.112Z,1022.79
2016-10-03T07:56:10.691Z,1022.81
2016-10-03T07:57:19.407Z,1022.82
2016-10-03T07:57:45.001Z,1022.82
2016-10-03T07:58:10.616Z,1022.84
2016-10-03T07:58:36.169Z,1022.85
2016-10-03T07:59:01.741Z,1022.86
2016-10-03T07:59:27.419Z,1022.88
2016-10-03T07:59:53.000Z,1022.89
2016-10-03T08:00:18.560Z,1022.9
2016-10-03T08:00:44.203Z,1022.91
2016-10-03T08:01:10.073Z,1022.93
2016-10-03T08:01:35.719Z,1022.97
2016-10-03T08:02:01.996Z,1022.98
2016-10-03T08:02:27.534Z,1022.99
2016-10-03T08:02:53.218Z,1022.95
2016-10-03T08:03:18.801Z,1022.98
2016-10-03T08:03:44.357Z,1023.03
2016-10-03T08:04:10.125Z,1023.02
2016-10-03T08:04:35.682Z,1023.02
2016-10-03T08:05:01.311Z,1023
2016-10-03T08:05:26.851Z,1023.07
2016-10-03T08:05:52.415Z,1023.02
2016-10-03T08:06:18.296Z,1023.06
2016-10-03T08:06:44.058Z,1023.08
2016-10-03T08:07:09.745Z,1023.06
2016-10-03T08:07:35.310Z,1023.07
2016-10-03T08:08:00.883Z,1023.07
2016-10-03T08:08:26.428Z,1023.09
2016-10-03T08:08:51.964Z,1023.09
2016-10-03T08:09:17.542Z,1023.07
2016-10-03T08:09:43.106Z,1023.08
2016-10-03T08:10:08.827Z,1023.05
2016-10-03T08:10:34.385Z,1023.09
2016-10-03T08:10:59.972Z,1023.05
2016-10-03T08:11:25.560Z,1023.08
2016-10-03T08:11:51.203Z,1023.12
2016-10-03T08:12:16.781Z,1023.08
2016-10-03T08:13:15.499Z,1023.08
2016-10-03T08:13:41.047Z,1023.14
2016-10-03T08:14:06.627Z,1023.11
2016-10-03T08:14:32.223Z,1023.11
2016-10-03T08:14:57.799Z,1023.11
2016-10-03T08:15:23.388Z,1023.11
2016-10-03T08:15:48.997Z,1023.1
2016-10-03T08:16:14.735Z,1023.1
2016-10-03T08:16:40.307Z,1023.09
2016-10-03T08:17:06.082Z,1023.11
2016-10-03T08:18:19.059Z,1023.15
2016-10-03T08:18:44.773Z,1023.1
2016-10-03T08:19:10.348Z,1023.1
2016-10-03T08:19:35.916Z,1023.12
2016-10-03T08:20:01.616Z,1023.12
2016-10-03T08:20:27.226Z,1023.12
2016-10-03T08:20:52.805Z,1023.12
2016-10-03T08:21:19.002Z,1023.1
2016-10-03T08:21:44.561Z,1023.11
2016-10-03T08:22:10.755Z,1023.13
2016-10-03T08:22:36.328Z,1023.09
2016-10-03T08:23:02.010Z,1023.1
2016-10-03T08:23:28.187Z,1023.15
2016-10-03T08:23:53.759Z,1023.15
2016-10-03T08:24:19.893Z,1023.1
2016-10-03T08:24:45.469Z,1023.16
2016-10-03T08:25:11.704Z,1023.1
2016-10-03T08:25:37.305Z,1023.16
2016-10-03T08:26:02.875Z,1023.11
2016-10-03T08:26:29.073Z,1023.2
2016-10-03T08:26:54.953Z,1023.2
2016-10-03T08:27:20.801Z,1023.18
2016-10-03T08:27:46.381Z,1023.16
2016-10-03T08:28:12.017Z,1023.14
2016-10-03T08:28:38.298Z,1023.19
2016-10-03T08:29:03.960Z,1023.21
2016-10-03T08:29:29.925Z,1023.17
2016-10-03T08:29:55.469Z,1023.23
2016-10-03T08:30:21.717Z,1023.2
2016-10-03T08:30:47.375Z,1023.21
2016-10-03T08:31:12.927Z,1023.23
2016-10-03T08:31:39.135Z,1023.18
2016-10-03T08:32:04.692Z,1023.24
2016-10-03T08:32:30.883Z,1023.16
2016-10-03T08:32:56.431Z,1023.18
2016-10-03T08:33:22.011Z,1023.21
2016-10-03T08:33:48.242Z,1023.15
2016-10-03T08:34:13.821Z,1023.26
2016-10-03T08:34:40.133Z,1023.17
2016-10-03T08:35:05.794Z,1023.16
2016-10-03T08:35:31.799Z,1023.17